首页
METAR-TAF:

METAR-TAF

机场 :

Doylestown Airport

Doylestown, 宾夕法尼亚州, 美国

纬度: 40-19-48N, 经度: 075-07-21W, 海拔: 120米

当前天气观测

该预报发布于15分钟前的15:43 UTC
风速4节,风向多变
温度 6°C
湿度 75%
气压 1014 hPa
能見度: 11.3公里
多云层高于700英尺
阴天层高于1200英尺

METAR: KDYL 151543Z AUTO VRB04KT 7SM BKN007 OVC012 06/02 A2994 RMK AO2 CIG 005V011 T00560022

时间: 10:58 (15:58 UTC)


TAF: 丢失

超过4000个机场的气象观测和天气预报(METAR&TAF报告)。

可查询的气象台以黄色和红色小点在地图上表示。

将鼠标移到小点上方,可查看气象台名称。

然后点击查看天气观测和预报。

如需切换地图:点击带黑十字的绿色按钮放大地图;点击带横线的绿色按钮缩小地图;或者点击绿色箭头查看邻近地区的地图。


METAR-TAF: